Terminal Aerodrome Forecast
Issued by NWS Mobile, AL

Home | Current Version | Previous Version | Text Only | Print | Product List | Glossary On
Versions: 1 2 3 4 5 6 7 8 9 10 11 12 13 14 15 16 17
000
FTUS44 KMOB 190500 RRA
TAFPNS
TAF
KPNS 190541Z 1906/2006 35009KT P6SM FEW012 OVC025
      TEMPO 1908/1912 5SM SHRA BKN015 OVC035
     FM191200 35011KT P6SM BKN004
     FM191500 36008KT P6SM SCT035 SCT250=

USA.gov is the U.S. government's official web portal to all federal, state and local government web resources and services.